sensor_id;sensor_type;location;lat;lon;timestamp;P1;durP1;ratioP1;P2;durP2;ratioP2
5014;SDS011;2526;51.060;4.228;2023-02-28T00:01:31;4.00;;;2.70;;
5014;SDS011;2526;51.060;4.228;2023-02-28T00:03:57;5.93;;;3.35;;
5014;SDS011;2526;51.060;4.228;2023-02-28T00:06:22;5.65;;;3.05;;
5014;SDS011;2526;51.060;4.228;2023-02-28T00:08:49;4.53;;;3.13;;
5014;SDS011;2526;51.060;4.228;2023-02-28T00:11:14;7.03;;;3.53;;
5014;SDS011;2526;51.060;4.228;2023-02-28T00:13:41;5.22;;;2.70;;
5014;SDS011;2526;51.060;4.228;2023-02-28T00:16:11;2.80;;;2.17;;
5014;SDS011;2526;51.060;4.228;2023-02-28T00:18:38;8.93;;;4.88;;
5014;SDS011;2526;51.060;4.228;2023-02-28T00:21:04;5.40;;;3.30;;
5014;SDS011;2526;51.060;4.228;2023-02-28T00:23:29;5.80;;;3.30;;
5014;SDS011;2526;51.060;4.228;2023-02-28T00:25:55;9.82;;;5.88;;
5014;SDS011;2526;51.060;4.228;2023-02-28T00:28:20;3.65;;;2.38;;
5014;SDS011;2526;51.060;4.228;2023-02-28T00:30:46;2.85;;;2.15;;
5014;SDS011;2526;51.060;4.228;2023-02-28T00:33:11;5.18;;;2.83;;
5014;SDS011;2526;51.060;4.228;2023-02-28T00:35:37;4.55;;;2.92;;
5014;SDS011;2526;51.060;4.228;2023-02-28T00:38:02;4.43;;;3.30;;
5014;SDS011;2526;51.060;4.228;2023-02-28T00:40:28;3.40;;;2.85;;
5014;SDS011;2526;51.060;4.228;2023-02-28T00:42:53;4.80;;;3.25;;
5014;SDS011;2526;51.060;4.228;2023-02-28T00:45:19;5.13;;;3.28;;
5014;SDS011;2526;51.060;4.228;2023-02-28T00:47:44;7.85;;;3.13;;
5014;SDS011;2526;51.060;4.228;2023-02-28T00:50:11;5.78;;;3.78;;
5014;SDS011;2526;51.060;4.228;2023-02-28T00:52:37;4.72;;;2.92;;
5014;SDS011;2526;51.060;4.228;2023-02-28T00:55:02;8.40;;;3.25;;
5014;SDS011;2526;51.060;4.228;2023-02-28T00:57:28;8.52;;;4.82;;
5014;SDS011;2526;51.060;4.228;2023-02-28T00:59:53;6.40;;;2.65;;
5014;SDS011;2526;51.060;4.228;2023-02-28T01:02:22;4.70;;;3.17;;
5014;SDS011;2526;51.060;4.228;2023-02-28T01:04:48;6.00;;;4.35;;
5014;SDS011;2526;51.060;4.228;2023-02-28T01:07:13;3.45;;;2.45;;
5014;SDS011;2526;51.060;4.228;2023-02-28T01:09:40;6.10;;;3.70;;
5014;SDS011;2526;51.060;4.228;2023-02-28T01:12:06;5.80;;;3.17;;
5014;SDS011;2526;51.060;4.228;2023-02-28T01:14:32;6.57;;;3.40;;
5014;SDS011;2526;51.060;4.228;2023-02-28T01:16:57;2.80;;;2.33;;
5014;SDS011;2526;51.060;4.228;2023-02-28T01:19:22;14.20;;;3.42;;
5014;SDS011;2526;51.060;4.228;2023-02-28T01:21:48;8.07;;;4.13;;
5014;SDS011;2526;51.060;4.228;2023-02-28T01:24:13;8.27;;;3.42;;
5014;SDS011;2526;51.060;4.228;2023-02-28T01:26:39;4.68;;;3.50;;
5014;SDS011;2526;51.060;4.228;2023-02-28T01:29:04;10.23;;;3.30;;
5014;SDS011;2526;51.060;4.228;2023-02-28T01:31:30;6.13;;;3.78;;
5014;SDS011;2526;51.060;4.228;2023-02-28T01:33:55;7.22;;;4.32;;
5014;SDS011;2526;51.060;4.228;2023-02-28T01:36:21;10.60;;;4.50;;
5014;SDS011;2526;51.060;4.228;2023-02-28T01:38:47;7.95;;;4.10;;
5014;SDS011;2526;51.060;4.228;2023-02-28T01:41:16;3.50;;;2.97;;
5014;SDS011;2526;51.060;4.228;2023-02-28T01:46:07;14.38;;;4.55;;
5014;SDS011;2526;51.060;4.228;2023-02-28T01:48:33;5.65;;;4.22;;
5014;SDS011;2526;51.060;4.228;2023-02-28T01:51:02;4.20;;;2.78;;
5014;SDS011;2526;51.060;4.228;2023-02-28T01:53:39;6.57;;;3.28;;
5014;SDS011;2526;51.060;4.228;2023-02-28T01:56:06;4.20;;;2.83;;
5014;SDS011;2526;51.060;4.228;2023-02-28T01:58:33;10.20;;;4.93;;
5014;SDS011;2526;51.060;4.228;2023-02-28T02:00:59;6.80;;;3.42;;
5014;SDS011;2526;51.060;4.228;2023-02-28T02:03:25;8.20;;;4.20;;
5014;SDS011;2526;51.060;4.228;2023-02-28T02:05:50;3.83;;;2.85;;
5014;SDS011;2526;51.060;4.228;2023-02-28T02:08:20;6.43;;;4.30;;
5014;SDS011;2526;51.060;4.228;2023-02-28T02:10:56;4.90;;;3.10;;
5014;SDS011;2526;51.060;4.228;2023-02-28T02:13:30;10.55;;;4.60;;
5014;SDS011;2526;51.060;4.228;2023-02-28T02:34:07;5.57;;;3.05;;
5014;SDS011;2526;51.060;4.228;2023-02-28T02:41:36;13.48;;;4.57;;
5014;SDS011;2526;51.060;4.228;2023-02-28T02:44:13;7.07;;;4.28;;
5014;SDS011;2526;51.060;4.228;2023-02-28T02:46:44;10.00;;;4.38;;
5014;SDS011;2526;51.060;4.228;2023-02-28T02:49:12;9.80;;;3.88;;
5014;SDS011;2526;51.060;4.228;2023-02-28T02:51:38;7.25;;;4.53;;
5014;SDS011;2526;51.060;4.228;2023-02-28T02:54:08;5.82;;;4.20;;
5014;SDS011;2526;51.060;4.228;2023-02-28T02:56:34;10.73;;;4.93;;
5014;SDS011;2526;51.060;4.228;2023-02-28T02:59:02;7.07;;;4.78;;
5014;SDS011;2526;51.060;4.228;2023-02-28T03:01:28;4.80;;;4.00;;
5014;SDS011;2526;51.060;4.228;2023-02-28T03:03:59;6.53;;;3.97;;
5014;SDS011;2526;51.060;4.228;2023-02-28T03:06:26;10.70;;;5.15;;
5014;SDS011;2526;51.060;4.228;2023-02-28T03:08:52;8.50;;;5.82;;
5014;SDS011;2526;51.060;4.228;2023-02-28T03:11:17;8.40;;;4.60;;
5014;SDS011;2526;51.060;4.228;2023-02-28T03:13:54;10.25;;;4.65;;
5014;SDS011;2526;51.060;4.228;2023-02-28T03:16:28;7.53;;;3.58;;
5014;SDS011;2526;51.060;4.228;2023-02-28T03:24:04;6.68;;;4.75;;
5014;SDS011;2526;51.060;4.228;2023-02-28T03:26:33;7.30;;;3.85;;
5014;SDS011;2526;51.060;4.228;2023-02-28T03:29:04;7.07;;;3.72;;
5014;SDS011;2526;51.060;4.228;2023-02-28T03:31:37;10.80;;;4.80;;
5014;SDS011;2526;51.060;4.228;2023-02-28T03:36:32;9.85;;;3.15;;
5014;SDS011;2526;51.060;4.228;2023-02-28T03:39:03;5.15;;;3.90;;
5014;SDS011;2526;51.060;4.228;2023-02-28T03:41:44;8.32;;;5.35;;
5014;SDS011;2526;51.060;4.228;2023-02-28T03:44:17;8.75;;;5.68;;
5014;SDS011;2526;51.060;4.228;2023-02-28T03:46:54;6.78;;;3.85;;
5014;SDS011;2526;51.060;4.228;2023-02-28T03:49:25;10.20;;;4.28;;
5014;SDS011;2526;51.060;4.228;2023-02-28T03:51:52;5.75;;;4.18;;
5014;SDS011;2526;51.060;4.228;2023-02-28T03:54:20;5.90;;;3.53;;
5014;SDS011;2526;51.060;4.228;2023-02-28T03:56:48;9.68;;;3.90;;
5014;SDS011;2526;51.060;4.228;2023-02-28T04:01:47;6.40;;;3.78;;
5014;SDS011;2526;51.060;4.228;2023-02-28T04:04:13;6.03;;;3.92;;
5014;SDS011;2526;51.060;4.228;2023-02-28T04:06:39;9.05;;;4.30;;
5014;SDS011;2526;51.060;4.228;2023-02-28T04:09:06;5.47;;;4.25;;
5014;SDS011;2526;51.060;4.228;2023-02-28T04:11:33;6.15;;;4.65;;
5014;SDS011;2526;51.060;4.228;2023-02-28T04:14:00;9.00;;;4.60;;
5014;SDS011;2526;51.060;4.228;2023-02-28T04:16:25;6.78;;;5.63;;
5014;SDS011;2526;51.060;4.228;2023-02-28T04:18:51;5.88;;;4.75;;
5014;SDS011;2526;51.060;4.228;2023-02-28T04:21:17;6.85;;;4.88;;
5014;SDS011;2526;51.060;4.228;2023-02-28T04:23:46;6.40;;;4.07;;
5014;SDS011;2526;51.060;4.228;2023-02-28T04:26:11;5.90;;;3.72;;
5014;SDS011;2526;51.060;4.228;2023-02-28T04:28:37;5.05;;;4.30;;
5014;SDS011;2526;51.060;4.228;2023-02-28T04:31:03;9.30;;;4.28;;
5014;SDS011;2526;51.060;4.228;2023-02-28T04:33:29;5.32;;;3.55;;
5014;SDS011;2526;51.060;4.228;2023-02-28T04:36:05;5.85;;;4.00;;
5014;SDS011;2526;51.060;4.228;2023-02-28T04:38:32;8.50;;;4.05;;
5014;SDS011;2526;51.060;4.228;2023-02-28T04:40:58;11.30;;;4.03;;
5014;SDS011;2526;51.060;4.228;2023-02-28T04:43:23;5.18;;;4.68;;
5014;SDS011;2526;51.060;4.228;2023-02-28T04:45:49;11.85;;;5.20;;
5014;SDS011;2526;51.060;4.228;2023-02-28T04:48:14;7.28;;;4.97;;
5014;SDS011;2526;51.060;4.228;2023-02-28T04:50:40;4.28;;;3.25;;
5014;SDS011;2526;51.060;4.228;2023-02-28T04:53:05;8.35;;;4.05;;
5014;SDS011;2526;51.060;4.228;2023-02-28T04:55:31;6.95;;;4.50;;
5014;SDS011;2526;51.060;4.228;2023-02-28T04:57:56;6.13;;;3.53;;
5014;SDS011;2526;51.060;4.228;2023-02-28T05:00:21;13.55;;;6.13;;
5014;SDS011;2526;51.060;4.228;2023-02-28T05:02:47;8.15;;;4.88;;
5014;SDS011;2526;51.060;4.228;2023-02-28T05:05:12;10.48;;;5.80;;
5014;SDS011;2526;51.060;4.228;2023-02-28T05:07:43;9.30;;;5.18;;
5014;SDS011;2526;51.060;4.228;2023-02-28T05:10:09;10.20;;;4.60;;
5014;SDS011;2526;51.060;4.228;2023-02-28T05:12:34;10.15;;;5.07;;
5014;SDS011;2526;51.060;4.228;2023-02-28T05:15:00;4.90;;;4.28;;
5014;SDS011;2526;51.060;4.228;2023-02-28T05:17:28;8.05;;;5.13;;
5014;SDS011;2526;51.060;4.228;2023-02-28T05:19:54;8.23;;;6.60;;
5014;SDS011;2526;51.060;4.228;2023-02-28T05:22:19;14.18;;;4.75;;
5014;SDS011;2526;51.060;4.228;2023-02-28T05:24:45;12.88;;;4.90;;
5014;SDS011;2526;51.060;4.228;2023-02-28T05:27:10;9.80;;;6.47;;
5014;SDS011;2526;51.060;4.228;2023-02-28T05:29:36;7.97;;;5.07;;
5014;SDS011;2526;51.060;4.228;2023-02-28T05:32:08;8.95;;;5.40;;
5014;SDS011;2526;51.060;4.228;2023-02-28T05:34:34;5.25;;;3.80;;
5014;SDS011;2526;51.060;4.228;2023-02-28T05:36:59;9.57;;;5.50;;
5014;SDS011;2526;51.060;4.228;2023-02-28T05:39:24;4.35;;;3.42;;
5014;SDS011;2526;51.060;4.228;2023-02-28T05:41:50;10.45;;;4.80;;
5014;SDS011;2526;51.060;4.228;2023-02-28T05:44:15;6.45;;;5.05;;
5014;SDS011;2526;51.060;4.228;2023-02-28T05:46:41;18.48;;;5.93;;
5014;SDS011;2526;51.060;4.228;2023-02-28T05:49:06;10.07;;;4.75;;
5014;SDS011;2526;51.060;4.228;2023-02-28T05:51:32;5.28;;;3.25;;
5014;SDS011;2526;51.060;4.228;2023-02-28T05:53:59;4.90;;;4.22;;
5014;SDS011;2526;51.060;4.228;2023-02-28T05:56:25;7.78;;;4.75;;
5014;SDS011;2526;51.060;4.228;2023-02-28T05:58:51;21.05;;;6.20;;
5014;SDS011;2526;51.060;4.228;2023-02-28T06:01:35;12.68;;;4.63;;
5014;SDS011;2526;51.060;4.228;2023-02-28T06:04:02;6.57;;;5.00;;
5014;SDS011;2526;51.060;4.228;2023-02-28T06:06:29;7.85;;;4.75;;
5014;SDS011;2526;51.060;4.228;2023-02-28T06:08:59;4.97;;;4.07;;
5014;SDS011;2526;51.060;4.228;2023-02-28T06:11:26;8.20;;;4.57;;
5014;SDS011;2526;51.060;4.228;2023-02-28T06:13:56;8.68;;;5.07;;
5014;SDS011;2526;51.060;4.228;2023-02-28T06:16:23;11.48;;;5.00;;
5014;SDS011;2526;51.060;4.228;2023-02-28T06:18:48;12.55;;;4.53;;
5014;SDS011;2526;51.060;4.228;2023-02-28T06:21:14;6.07;;;5.50;;
5014;SDS011;2526;51.060;4.228;2023-02-28T06:23:39;6.35;;;4.50;;
5014;SDS011;2526;51.060;4.228;2023-02-28T06:26:05;8.43;;;5.65;;
5014;SDS011;2526;51.060;4.228;2023-02-28T06:28:30;9.85;;;5.10;;
5014;SDS011;2526;51.060;4.228;2023-02-28T06:30:56;7.10;;;5.75;;
5014;SDS011;2526;51.060;4.228;2023-02-28T06:33:21;6.03;;;4.18;;
5014;SDS011;2526;51.060;4.228;2023-02-28T06:35:47;9.35;;;3.92;;
5014;SDS011;2526;51.060;4.228;2023-02-28T06:38:13;14.10;;;5.63;;
5014;SDS011;2526;51.060;4.228;2023-02-28T06:40:38;10.60;;;4.30;;
5014;SDS011;2526;51.060;4.228;2023-02-28T06:43:04;8.65;;;4.53;;
5014;SDS011;2526;51.060;4.228;2023-02-28T06:45:29;14.50;;;5.63;;
5014;SDS011;2526;51.060;4.228;2023-02-28T06:47:55;6.13;;;3.67;;
5014;SDS011;2526;51.060;4.228;2023-02-28T06:50:20;5.63;;;3.63;;
5014;SDS011;2526;51.060;4.228;2023-02-28T06:52:46;5.47;;;3.03;;
5014;SDS011;2526;51.060;4.228;2023-02-28T06:55:11;9.88;;;4.53;;
5014;SDS011;2526;51.060;4.228;2023-02-28T06:57:37;7.80;;;4.82;;
5014;SDS011;2526;51.060;4.228;2023-02-28T07:00:04;9.68;;;4.78;;
5014;SDS011;2526;51.060;4.228;2023-02-28T07:02:31;7.38;;;4.43;;
5014;SDS011;2526;51.060;4.228;2023-02-28T07:04:56;12.90;;;4.20;;
5014;SDS011;2526;51.060;4.228;2023-02-28T07:07:22;15.70;;;4.72;;
5014;SDS011;2526;51.060;4.228;2023-02-28T07:09:47;6.32;;;4.55;;
5014;SDS011;2526;51.060;4.228;2023-02-28T07:12:13;9.02;;;5.82;;
5014;SDS011;2526;51.060;4.228;2023-02-28T07:14:38;7.03;;;5.05;;
5014;SDS011;2526;51.060;4.228;2023-02-28T07:17:06;6.82;;;4.95;;
5014;SDS011;2526;51.060;4.228;2023-02-28T07:19:31;6.10;;;3.75;;
5014;SDS011;2526;51.060;4.228;2023-02-28T07:21:57;7.50;;;4.90;;
5014;SDS011;2526;51.060;4.228;2023-02-28T07:24:22;13.60;;;4.80;;
5014;SDS011;2526;51.060;4.228;2023-02-28T07:26:50;8.23;;;4.93;;
5014;SDS011;2526;51.060;4.228;2023-02-28T07:29:16;6.10;;;4.97;;
5014;SDS011;2526;51.060;4.228;2023-02-28T07:31:41;8.57;;;5.32;;
5014;SDS011;2526;51.060;4.228;2023-02-28T07:34:07;10.25;;;5.35;;
5014;SDS011;2526;51.060;4.228;2023-02-28T07:36:32;8.88;;;4.15;;
5014;SDS011;2526;51.060;4.228;2023-02-28T07:38:58;8.90;;;3.80;;
5014;SDS011;2526;51.060;4.228;2023-02-28T07:41:24;7.43;;;4.88;;
5014;SDS011;2526;51.060;4.228;2023-02-28T07:43:55;8.38;;;4.05;;
5014;SDS011;2526;51.060;4.228;2023-02-28T07:46:22;3.45;;;2.97;;
5014;SDS011;2526;51.060;4.228;2023-02-28T07:48:48;5.97;;;3.65;;
5014;SDS011;2526;51.060;4.228;2023-02-28T07:51:13;9.15;;;4.22;;
5014;SDS011;2526;51.060;4.228;2023-02-28T07:53:39;5.78;;;3.58;;
5014;SDS011;2526;51.060;4.228;2023-02-28T07:56:05;8.38;;;4.70;;
5014;SDS011;2526;51.060;4.228;2023-02-28T07:58:30;9.35;;;4.32;;
5014;SDS011;2526;51.060;4.228;2023-02-28T08:00:56;5.57;;;3.60;;
5014;SDS011;2526;51.060;4.228;2023-02-28T08:03:22;3.47;;;2.70;;
5014;SDS011;2526;51.060;4.228;2023-02-28T08:05:48;4.90;;;3.58;;
5014;SDS011;2526;51.060;4.228;2023-02-28T08:08:14;8.30;;;5.30;;
5014;SDS011;2526;51.060;4.228;2023-02-28T08:10:40;6.22;;;3.50;;
5014;SDS011;2526;51.060;4.228;2023-02-28T08:13:05;4.53;;;3.22;;
5014;SDS011;2526;51.060;4.228;2023-02-28T08:15:31;4.82;;;2.95;;
5014;SDS011;2526;51.060;4.228;2023-02-28T08:17:56;2.80;;;2.25;;
5014;SDS011;2526;51.060;4.228;2023-02-28T08:20:22;8.20;;;3.38;;
5014;SDS011;2526;51.060;4.228;2023-02-28T08:22:48;6.22;;;3.67;;
5014;SDS011;2526;51.060;4.228;2023-02-28T08:25:14;5.72;;;3.05;;
5014;SDS011;2526;51.060;4.228;2023-02-28T08:27:39;3.47;;;2.15;;
5014;SDS011;2526;51.060;4.228;2023-02-28T08:30:05;2.17;;;1.88;;
5014;SDS011;2526;51.060;4.228;2023-02-28T08:32:32;5.43;;;3.00;;
5014;SDS011;2526;51.060;4.228;2023-02-28T08:34:57;3.47;;;2.10;;
5014;SDS011;2526;51.060;4.228;2023-02-28T08:37:23;7.13;;;3.35;;
5014;SDS011;2526;51.060;4.228;2023-02-28T08:39:48;4.97;;;1.98;;
5014;SDS011;2526;51.060;4.228;2023-02-28T08:42:14;4.03;;;2.60;;
5014;SDS011;2526;51.060;4.228;2023-02-28T08:44:39;4.47;;;1.90;;
5014;SDS011;2526;51.060;4.228;2023-02-28T08:47:05;2.83;;;1.92;;
5014;SDS011;2526;51.060;4.228;2023-02-28T08:49:31;3.35;;;2.28;;
5014;SDS011;2526;51.060;4.228;2023-02-28T08:51:56;21.17;;;3.08;;
5014;SDS011;2526;51.060;4.228;2023-02-28T08:54:22;5.22;;;2.13;;
5014;SDS011;2526;51.060;4.228;2023-02-28T08:56:48;2.65;;;1.80;;
5014;SDS011;2526;51.060;4.228;2023-02-28T08:59:13;2.63;;;1.80;;
5014;SDS011;2526;51.060;4.228;2023-02-28T09:01:39;3.38;;;1.90;;
5014;SDS011;2526;51.060;4.228;2023-02-28T09:04:06;3.97;;;1.98;;
5014;SDS011;2526;51.060;4.228;2023-02-28T09:06:33;1.35;;;1.05;;
5014;SDS011;2526;51.060;4.228;2023-02-28T09:08:59;3.50;;;1.35;;
5014;SDS011;2526;51.060;4.228;2023-02-28T09:11:26;5.13;;;2.15;;
5014;SDS011;2526;51.060;4.228;2023-02-28T09:13:52;2.90;;;1.92;;
5014;SDS011;2526;51.060;4.228;2023-02-28T09:16:17;1.92;;;1.60;;
5014;SDS011;2526;51.060;4.228;2023-02-28T09:18:43;3.28;;;1.67;;
5014;SDS011;2526;51.060;4.228;2023-02-28T09:21:10;4.75;;;1.83;;
5014;SDS011;2526;51.060;4.228;2023-02-28T09:23:38;3.03;;;1.67;;
5014;SDS011;2526;51.060;4.228;2023-02-28T09:26:04;1.50;;;1.40;;
5014;SDS011;2526;51.060;4.228;2023-02-28T09:28:30;2.75;;;1.88;;
5014;SDS011;2526;51.060;4.228;2023-02-28T09:30:55;2.00;;;1.63;;
5014;SDS011;2526;51.060;4.228;2023-02-28T09:33:22;3.78;;;1.48;;
5014;SDS011;2526;51.060;4.228;2023-02-28T09:35:49;1.80;;;1.63;;
5014;SDS011;2526;51.060;4.228;2023-02-28T09:38:14;5.70;;;1.90;;
5014;SDS011;2526;51.060;4.228;2023-02-28T09:40:51;2.33;;;1.52;;
5014;SDS011;2526;51.060;4.228;2023-02-28T09:43:17;4.85;;;1.75;;
5014;SDS011;2526;51.060;4.228;2023-02-28T09:45:49;3.42;;;1.83;;
5014;SDS011;2526;51.060;4.228;2023-02-28T09:48:19;1.83;;;1.60;;
5014;SDS011;2526;51.060;4.228;2023-02-28T09:50:46;6.18;;;2.20;;
5014;SDS011;2526;51.060;4.228;2023-02-28T09:53:32;4.15;;;1.00;;
5014;SDS011;2526;51.060;4.228;2023-02-28T09:56:37;9.15;;;3.10;;
5014;SDS011;2526;51.060;4.228;2023-02-28T09:59:02;2.95;;;2.08;;
5014;SDS011;2526;51.060;4.228;2023-02-28T10:04:24;4.68;;;1.98;;
5014;SDS011;2526;51.060;4.228;2023-02-28T10:06:54;1.63;;;1.10;;
5014;SDS011;2526;51.060;4.228;2023-02-28T10:09:26;7.03;;;1.70;;
5014;SDS011;2526;51.060;4.228;2023-02-28T10:11:54;1.38;;;1.10;;
5014;SDS011;2526;51.060;4.228;2023-02-28T10:14:22;2.92;;;1.00;;
5014;SDS011;2526;51.060;4.228;2023-02-28T10:19:22;0.80;;;0.80;;
5014;SDS011;2526;51.060;4.228;2023-02-28T10:22:23;1.45;;;1.20;;
5014;SDS011;2526;51.060;4.228;2023-02-28T10:24:50;1.17;;;1.13;;
5014;SDS011;2526;51.060;4.228;2023-02-28T10:27:20;2.85;;;1.73;;
5014;SDS011;2526;51.060;4.228;2023-02-28T10:29:46;1.35;;;1.25;;
5014;SDS011;2526;51.060;4.228;2023-02-28T10:32:14;4.20;;;1.33;;
5014;SDS011;2526;51.060;4.228;2023-02-28T10:34:40;2.05;;;1.23;;
5014;SDS011;2526;51.060;4.228;2023-02-28T10:37:06;1.20;;;0.95;;
5014;SDS011;2526;51.060;4.228;2023-02-28T10:42:04;1.55;;;1.15;;
5014;SDS011;2526;51.060;4.228;2023-02-28T10:44:29;1.25;;;1.05;;
5014;SDS011;2526;51.060;4.228;2023-02-28T10:46:55;2.83;;;0.90;;
5014;SDS011;2526;51.060;4.228;2023-02-28T10:49:28;1.67;;;1.27;;
5014;SDS011;2526;51.060;4.228;2023-02-28T10:51:55;4.22;;;1.55;;
5014;SDS011;2526;51.060;4.228;2023-02-28T10:54:35;1.98;;;1.23;;
5014;SDS011;2526;51.060;4.228;2023-02-28T10:59:34;1.50;;;1.25;;
5014;SDS011;2526;51.060;4.228;2023-02-28T11:02:00;3.05;;;1.30;;
5014;SDS011;2526;51.060;4.228;2023-02-28T11:09:41;1.58;;;1.25;;
5014;SDS011;2526;51.060;4.228;2023-02-28T11:12:31;1.60;;;1.00;;
5014;SDS011;2526;51.060;4.228;2023-02-28T11:15:00;1.42;;;1.13;;
5014;SDS011;2526;51.060;4.228;2023-02-28T11:17:28;2.75;;;1.00;;
5014;SDS011;2526;51.060;4.228;2023-02-28T11:19:58;1.30;;;1.13;;
5014;SDS011;2526;51.060;4.228;2023-02-28T11:22:27;2.88;;;1.40;;
5014;SDS011;2526;51.060;4.228;2023-02-28T11:24:55;1.25;;;0.73;;
5014;SDS011;2526;51.060;4.228;2023-02-28T11:29:56;1.60;;;0.98;;
5014;SDS011;2526;51.060;4.228;2023-02-28T11:32:23;1.35;;;1.25;;
5014;SDS011;2526;51.060;4.228;2023-02-28T11:37:33;2.53;;;1.08;;
5014;SDS011;2526;51.060;4.228;2023-02-28T11:39:59;1.40;;;1.05;;
5014;SDS011;2526;51.060;4.228;2023-02-28T11:52:34;2.13;;;1.08;;
5014;SDS011;2526;51.060;4.228;2023-02-28T12:03:14;1.23;;;1.13;;
5014;SDS011;2526;51.060;4.228;2023-02-28T12:05:54;1.70;;;1.02;;
5014;SDS011;2526;51.060;4.228;2023-02-28T12:08:33;2.13;;;1.33;;
5014;SDS011;2526;51.060;4.228;2023-02-28T12:13:36;1.38;;;1.25;;
5014;SDS011;2526;51.060;4.228;2023-02-28T12:16:18;3.60;;;0.80;;
5014;SDS011;2526;51.060;4.228;2023-02-28T12:26:43;1.90;;;1.25;;
5014;SDS011;2526;51.060;4.228;2023-02-28T12:29:16;1.70;;;1.10;;
5014;SDS011;2526;51.060;4.228;2023-02-28T12:31:56;1.52;;;0.95;;
5014;SDS011;2526;51.060;4.228;2023-02-28T12:34:28;2.17;;;0.85;;
5014;SDS011;2526;51.060;4.228;2023-02-28T12:36:56;2.10;;;1.23;;
5014;SDS011;2526;51.060;4.228;2023-02-28T12:39:25;1.23;;;0.75;;
5014;SDS011;2526;51.060;4.228;2023-02-28T12:41:53;2.33;;;0.93;;
5014;SDS011;2526;51.060;4.228;2023-02-28T12:44:40;0.63;;;0.63;;
5014;SDS011;2526;51.060;4.228;2023-02-28T12:47:13;1.65;;;0.93;;
5014;SDS011;2526;51.060;4.228;2023-02-28T12:52:11;2.70;;;1.15;;
5014;SDS011;2526;51.060;4.228;2023-02-28T12:54:52;2.03;;;1.30;;
5014;SDS011;2526;51.060;4.228;2023-02-28T12:57:32;1.45;;;1.15;;
5014;SDS011;2526;51.060;4.228;2023-02-28T13:00:08;5.60;;;3.03;;
5014;SDS011;2526;51.060;4.228;2023-02-28T13:10:42;2.05;;;1.40;;
5014;SDS011;2526;51.060;4.228;2023-02-28T13:13:11;6.13;;;2.90;;
5014;SDS011;2526;51.060;4.228;2023-02-28T13:15:39;5.00;;;1.48;;
5014;SDS011;2526;51.060;4.228;2023-02-28T13:18:20;7.95;;;2.10;;
5014;SDS011;2526;51.060;4.228;2023-02-28T13:20:49;4.70;;;1.63;;
5014;SDS011;2526;51.060;4.228;2023-02-28T13:26:00;8.02;;;1.10;;
5014;SDS011;2526;51.060;4.228;2023-02-28T13:31:12;1.50;;;1.17;;
5014;SDS011;2526;51.060;4.228;2023-02-28T13:38:53;2.10;;;1.55;;
5014;SDS011;2526;51.060;4.228;2023-02-28T13:47:22;1.98;;;1.40;;
5014;SDS011;2526;51.060;4.228;2023-02-28T13:54:56;2.20;;;1.15;;
5014;SDS011;2526;51.060;4.228;2023-02-28T13:57:34;2.65;;;1.13;;
5014;SDS011;2526;51.060;4.228;2023-02-28T14:00:14;1.23;;;1.08;;
5014;SDS011;2526;51.060;4.228;2023-02-28T14:05:15;3.22;;;1.45;;
5014;SDS011;2526;51.060;4.228;2023-02-28T14:07:46;12.65;;;1.67;;
5014;SDS011;2526;51.060;4.228;2023-02-28T14:10:32;1.52;;;1.25;;
5014;SDS011;2526;51.060;4.228;2023-02-28T14:12:59;1.90;;;1.40;;
5014;SDS011;2526;51.060;4.228;2023-02-28T14:18:04;1.48;;;1.00;;
5014;SDS011;2526;51.060;4.228;2023-02-28T14:20:31;5.22;;;1.50;;
5014;SDS011;2526;51.060;4.228;2023-02-28T14:23:10;1.90;;;1.73;;
5014;SDS011;2526;51.060;4.228;2023-02-28T14:38:43;1.88;;;1.67;;
5014;SDS011;2526;51.060;4.228;2023-02-28T14:41:46;2.65;;;1.80;;
5014;SDS011;2526;51.060;4.228;2023-02-28T14:44:13;1.45;;;1.25;;
5014;SDS011;2526;51.060;4.228;2023-02-28T14:46:39;9.80;;;3.05;;
5014;SDS011;2526;51.060;4.228;2023-02-28T14:49:05;2.97;;;1.75;;
5014;SDS011;2526;51.060;4.228;2023-02-28T14:51:32;2.20;;;1.20;;
5014;SDS011;2526;51.060;4.228;2023-02-28T14:53:59;1.80;;;1.42;;
5014;SDS011;2526;51.060;4.228;2023-02-28T14:56:30;1.90;;;1.33;;
5014;SDS011;2526;51.060;4.228;2023-02-28T14:58:58;5.20;;;2.13;;
5014;SDS011;2526;51.060;4.228;2023-02-28T15:01:24;3.08;;;1.67;;
5014;SDS011;2526;51.060;4.228;2023-02-28T15:04:00;2.58;;;1.60;;
5014;SDS011;2526;51.060;4.228;2023-02-28T15:06:26;13.23;;;1.73;;
5014;SDS011;2526;51.060;4.228;2023-02-28T15:09:13;5.82;;;1.85;;
5014;SDS011;2526;51.060;4.228;2023-02-28T15:11:39;1.75;;;1.13;;
5014;SDS011;2526;51.060;4.228;2023-02-28T15:14:05;2.38;;;1.90;;
5014;SDS011;2526;51.060;4.228;2023-02-28T15:16:35;4.00;;;1.10;;
5014;SDS011;2526;51.060;4.228;2023-02-28T15:19:04;1.80;;;1.48;;
5014;SDS011;2526;51.060;4.228;2023-02-28T15:21:35;2.33;;;1.65;;
5014;SDS011;2526;51.060;4.228;2023-02-28T15:26:37;4.53;;;1.52;;
5014;SDS011;2526;51.060;4.228;2023-02-28T15:29:07;2.30;;;1.35;;
5014;SDS011;2526;51.060;4.228;2023-02-28T15:31:34;3.22;;;2.05;;
5014;SDS011;2526;51.060;4.228;2023-02-28T15:34:04;1.58;;;1.35;;
5014;SDS011;2526;51.060;4.228;2023-02-28T15:36:32;2.10;;;1.58;;
5014;SDS011;2526;51.060;4.228;2023-02-28T15:38:59;1.98;;;1.63;;
5014;SDS011;2526;51.060;4.228;2023-02-28T15:41:26;2.72;;;1.58;;
5014;SDS011;2526;51.060;4.228;2023-02-28T15:46:36;5.03;;;2.30;;
5014;SDS011;2526;51.060;4.228;2023-02-28T15:49:01;11.00;;;1.88;;
5014;SDS011;2526;51.060;4.228;2023-02-28T15:51:29;4.57;;;1.17;;
5014;SDS011;2526;51.060;4.228;2023-02-28T15:56:25;4.47;;;1.65;;
5014;SDS011;2526;51.060;4.228;2023-02-28T15:58:58;4.82;;;1.75;;
5014;SDS011;2526;51.060;4.228;2023-02-28T16:03:50;3.72;;;1.45;;
5014;SDS011;2526;51.060;4.228;2023-02-28T16:06:21;2.30;;;1.55;;
5014;SDS011;2526;51.060;4.228;2023-02-28T16:08:49;2.58;;;1.42;;
5014;SDS011;2526;51.060;4.228;2023-02-28T16:11:16;14.55;;;2.67;;
5014;SDS011;2526;51.060;4.228;2023-02-28T16:13:42;7.97;;;1.80;;
5014;SDS011;2526;51.060;4.228;2023-02-28T16:16:08;2.85;;;1.65;;
5014;SDS011;2526;51.060;4.228;2023-02-28T16:18:33;2.53;;;1.70;;
5014;SDS011;2526;51.060;4.228;2023-02-28T16:20:59;4.68;;;2.08;;
5014;SDS011;2526;51.060;4.228;2023-02-28T16:23:24;2.45;;;1.63;;
5014;SDS011;2526;51.060;4.228;2023-02-28T16:25:50;3.00;;;1.92;;
5014;SDS011;2526;51.060;4.228;2023-02-28T16:28:18;2.55;;;1.65;;
5014;SDS011;2526;51.060;4.228;2023-02-28T16:30:44;3.33;;;1.75;;
5014;SDS011;2526;51.060;4.228;2023-02-28T16:33:10;1.40;;;1.30;;
5014;SDS011;2526;51.060;4.228;2023-02-28T16:35:35;2.78;;;1.38;;
5014;SDS011;2526;51.060;4.228;2023-02-28T16:38:00;2.90;;;1.85;;
5014;SDS011;2526;51.060;4.228;2023-02-28T16:40:26;2.33;;;1.63;;
5014;SDS011;2526;51.060;4.228;2023-02-28T16:42:54;4.25;;;1.67;;
5014;SDS011;2526;51.060;4.228;2023-02-28T16:45:23;3.83;;;2.42;;
5014;SDS011;2526;51.060;4.228;2023-02-28T16:47:49;3.63;;;1.92;;
5014;SDS011;2526;51.060;4.228;2023-02-28T16:52:40;6.07;;;2.58;;
5014;SDS011;2526;51.060;4.228;2023-02-28T16:55:06;2.17;;;1.90;;
5014;SDS011;2526;51.060;4.228;2023-02-28T16:57:31;2.30;;;2.05;;
5014;SDS011;2526;51.060;4.228;2023-02-28T16:59:57;2.03;;;1.42;;
5014;SDS011;2526;51.060;4.228;2023-02-28T17:02:22;4.75;;;2.38;;
5014;SDS011;2526;51.060;4.228;2023-02-28T17:04:48;2.88;;;1.77;;
5014;SDS011;2526;51.060;4.228;2023-02-28T17:07:14;3.53;;;2.25;;
5014;SDS011;2526;51.060;4.228;2023-02-28T17:09:41;5.60;;;2.05;;
5014;SDS011;2526;51.060;4.228;2023-02-28T17:12:06;2.78;;;1.70;;
5014;SDS011;2526;51.060;4.228;2023-02-28T17:14:32;4.65;;;2.35;;
5014;SDS011;2526;51.060;4.228;2023-02-28T17:16:58;2.67;;;1.48;;
5014;SDS011;2526;51.060;4.228;2023-02-28T17:19:23;3.40;;;2.03;;
5014;SDS011;2526;51.060;4.228;2023-02-28T17:21:49;4.63;;;2.08;;
5014;SDS011;2526;51.060;4.228;2023-02-28T17:24:14;5.03;;;2.78;;
5014;SDS011;2526;51.060;4.228;2023-02-28T17:26:40;2.30;;;1.90;;
5014;SDS011;2526;51.060;4.228;2023-02-28T17:29:11;4.00;;;2.50;;
5014;SDS011;2526;51.060;4.228;2023-02-28T17:31:38;6.05;;;2.33;;
5014;SDS011;2526;51.060;4.228;2023-02-28T17:34:04;3.83;;;2.95;;
5014;SDS011;2526;51.060;4.228;2023-02-28T17:37:02;6.28;;;2.28;;
5014;SDS011;2526;51.060;4.228;2023-02-28T17:39:54;9.07;;;2.20;;
5014;SDS011;2526;51.060;4.228;2023-02-28T17:42:27;5.82;;;2.13;;
5014;SDS011;2526;51.060;4.228;2023-02-28T17:45:24;2.80;;;2.10;;
5014;SDS011;2526;51.060;4.228;2023-02-28T17:48:11;4.57;;;2.20;;
5014;SDS011;2526;51.060;4.228;2023-02-28T17:50:57;2.33;;;1.77;;